Makushino, Russia
Current Conditions -  °F | °C
As of 4:30 PM on Friday 28 Nov 2014 (Local Time) from UACP Reporting Station
Clear Clear  
Wind Chill: -29°   Ceiling: Unl
Heat Index: -11°   Visibility: 6mi
Dew Point: -17°   Wind: 9mph
Humidity: 77%   Direction: 180°S
Pressure: 30.74"   Gusts: NA
Location:  55.21°N, 67.24°E
Report Text: UACP 281130Z 18004MPS CAVOK M24/M27 Q1041 R23/8/2043 NOSIG RMKQFE768/1024
Loading
Personal Weather Stations






























Interactive Weather Map New forecast layout! Learn more

10-Day Weather Forecast

Advertisements
Track Severe Weather on mobile